sensor_id;sensor_type;location;lat;lon;timestamp;P1;durP1;ratioP1;P2;durP2;ratioP2
65373;SDS011;52070;53.760;9.678;2023-03-21T00:00:30;43.38;;;24.65;;
65373;SDS011;52070;53.760;9.678;2023-03-21T00:02:57;48.70;;;25.73;;
65373;SDS011;52070;53.760;9.678;2023-03-21T00:05:25;44.45;;;25.38;;
65373;SDS011;52070;53.760;9.678;2023-03-21T00:07:52;44.55;;;24.67;;
65373;SDS011;52070;53.760;9.678;2023-03-21T00:10:19;43.53;;;25.52;;
65373;SDS011;52070;53.760;9.678;2023-03-21T00:12:47;47.13;;;24.70;;
65373;SDS011;52070;53.760;9.678;2023-03-21T00:15:23;42.80;;;24.27;;
65373;SDS011;52070;53.760;9.678;2023-03-21T00:17:52;43.05;;;25.10;;
65373;SDS011;52070;53.760;9.678;2023-03-21T00:20:22;45.70;;;24.25;;
65373;SDS011;52070;53.760;9.678;2023-03-21T00:22:51;50.03;;;25.90;;
65373;SDS011;52070;53.760;9.678;2023-03-21T00:25:18;50.17;;;25.88;;
65373;SDS011;52070;53.760;9.678;2023-03-21T00:27:45;41.72;;;24.98;;
65373;SDS011;52070;53.760;9.678;2023-03-21T00:30:13;45.40;;;25.35;;
65373;SDS011;52070;53.760;9.678;2023-03-21T00:32:40;45.45;;;24.98;;
65373;SDS011;52070;53.760;9.678;2023-03-21T00:35:07;46.90;;;25.30;;
65373;SDS011;52070;53.760;9.678;2023-03-21T00:37:34;46.90;;;25.95;;
65373;SDS011;52070;53.760;9.678;2023-03-21T00:40:03;46.92;;;25.65;;
65373;SDS011;52070;53.760;9.678;2023-03-21T00:42:34;44.67;;;25.30;;
65373;SDS011;52070;53.760;9.678;2023-03-21T00:45:01;45.92;;;26.27;;
65373;SDS011;52070;53.760;9.678;2023-03-21T00:47:28;50.05;;;26.30;;
65373;SDS011;52070;53.760;9.678;2023-03-21T00:49:55;46.47;;;26.23;;
65373;SDS011;52070;53.760;9.678;2023-03-21T00:52:22;47.08;;;25.05;;
65373;SDS011;52070;53.760;9.678;2023-03-21T00:54:49;47.13;;;26.75;;
65373;SDS011;52070;53.760;9.678;2023-03-21T00:57:17;50.97;;;25.95;;
65373;SDS011;52070;53.760;9.678;2023-03-21T00:59:44;55.60;;;26.77;;
65373;SDS011;52070;53.760;9.678;2023-03-21T01:02:11;48.55;;;26.15;;
65373;SDS011;52070;53.760;9.678;2023-03-21T01:04:47;52.05;;;25.15;;
65373;SDS011;52070;53.760;9.678;2023-03-21T01:07:14;42.47;;;24.60;;
65373;SDS011;52070;53.760;9.678;2023-03-21T01:09:41;48.35;;;25.65;;
65373;SDS011;52070;53.760;9.678;2023-03-21T01:12:08;47.35;;;26.80;;
65373;SDS011;52070;53.760;9.678;2023-03-21T01:14:36;44.03;;;25.80;;
65373;SDS011;52070;53.760;9.678;2023-03-21T01:17:03;45.97;;;25.50;;
65373;SDS011;52070;53.760;9.678;2023-03-21T01:19:31;54.25;;;26.25;;
65373;SDS011;52070;53.760;9.678;2023-03-21T01:21:58;46.78;;;25.80;;
65373;SDS011;52070;53.760;9.678;2023-03-21T01:24:25;47.30;;;26.15;;
65373;SDS011;52070;53.760;9.678;2023-03-21T01:26:52;52.67;;;26.38;;
65373;SDS011;52070;53.760;9.678;2023-03-21T01:29:19;51.22;;;25.42;;
65373;SDS011;52070;53.760;9.678;2023-03-21T01:31:47;48.42;;;26.13;;
65373;SDS011;52070;53.760;9.678;2023-03-21T01:34:14;49.90;;;26.90;;
65373;SDS011;52070;53.760;9.678;2023-03-21T01:36:41;48.53;;;26.60;;
65373;SDS011;52070;53.760;9.678;2023-03-21T01:39:08;53.67;;;27.63;;
65373;SDS011;52070;53.760;9.678;2023-03-21T01:41:36;56.05;;;28.17;;
65373;SDS011;52070;53.760;9.678;2023-03-21T01:44:04;54.05;;;26.73;;
65373;SDS011;52070;53.760;9.678;2023-03-21T01:46:34;51.42;;;27.13;;
65373;SDS011;52070;53.760;9.678;2023-03-21T01:49:07;52.78;;;27.63;;
65373;SDS011;52070;53.760;9.678;2023-03-21T01:51:39;54.22;;;26.80;;
65373;SDS011;52070;53.760;9.678;2023-03-21T01:54:11;49.08;;;26.85;;
65373;SDS011;52070;53.760;9.678;2023-03-21T01:56:43;50.63;;;26.98;;
65373;SDS011;52070;53.760;9.678;2023-03-21T01:59:13;54.65;;;26.75;;
65373;SDS011;52070;53.760;9.678;2023-03-21T02:01:46;50.63;;;28.20;;
65373;SDS011;52070;53.760;9.678;2023-03-21T02:04:16;50.40;;;27.23;;
65373;SDS011;52070;53.760;9.678;2023-03-21T02:06:48;50.65;;;26.73;;
65373;SDS011;52070;53.760;9.678;2023-03-21T02:09:19;52.30;;;27.83;;
65373;SDS011;52070;53.760;9.678;2023-03-21T02:11:49;53.78;;;27.50;;
65373;SDS011;52070;53.760;9.678;2023-03-21T02:14:17;54.95;;;27.27;;
65373;SDS011;52070;53.760;9.678;2023-03-21T02:16:47;57.75;;;28.63;;
65373;SDS011;52070;53.760;9.678;2023-03-21T02:19:25;57.53;;;27.80;;
65373;SDS011;52070;53.760;9.678;2023-03-21T02:28:10;54.88;;;28.92;;
65373;SDS011;52070;53.760;9.678;2023-03-21T02:30:51;52.95;;;28.27;;
65373;SDS011;52070;53.760;9.678;2023-03-21T02:36:48;54.95;;;27.95;;
65373;SDS011;52070;53.760;9.678;2023-03-21T02:39:31;58.38;;;29.08;;
65373;SDS011;52070;53.760;9.678;2023-03-21T02:42:07;56.00;;;29.17;;
65373;SDS011;52070;53.760;9.678;2023-03-21T02:44:42;65.05;;;29.75;;
65373;SDS011;52070;53.760;9.678;2023-03-21T02:47:13;66.57;;;30.13;;
65373;SDS011;52070;53.760;9.678;2023-03-21T02:49:46;55.55;;;28.58;;
65373;SDS011;52070;53.760;9.678;2023-03-21T02:52:21;55.95;;;28.73;;
65373;SDS011;52070;53.760;9.678;2023-03-21T02:54:51;66.47;;;30.90;;
65373;SDS011;52070;53.760;9.678;2023-03-21T02:57:20;66.70;;;31.23;;
65373;SDS011;52070;53.760;9.678;2023-03-21T02:59:47;64.13;;;30.02;;
65373;SDS011;52070;53.760;9.678;2023-03-21T03:02:15;63.55;;;30.35;;
65373;SDS011;52070;53.760;9.678;2023-03-21T03:04:47;63.63;;;30.20;;
65373;SDS011;52070;53.760;9.678;2023-03-21T03:07:18;60.95;;;31.48;;
65373;SDS011;52070;53.760;9.678;2023-03-21T03:09:58;65.40;;;31.95;;
65373;SDS011;52070;53.760;9.678;2023-03-21T03:12:39;63.47;;;30.70;;
65373;SDS011;52070;53.760;9.678;2023-03-21T03:15:15;68.35;;;31.58;;
65373;SDS011;52070;53.760;9.678;2023-03-21T03:17:53;67.55;;;31.63;;
65373;SDS011;52070;53.760;9.678;2023-03-21T03:20:32;65.72;;;30.30;;
65373;SDS011;52070;53.760;9.678;2023-03-21T03:23:12;66.30;;;31.75;;
65373;SDS011;52070;53.760;9.678;2023-03-21T03:25:46;59.88;;;30.75;;
65373;SDS011;52070;53.760;9.678;2023-03-21T03:28:18;59.80;;;30.58;;
65373;SDS011;52070;53.760;9.678;2023-03-21T03:30:50;56.58;;;30.73;;
65373;SDS011;52070;53.760;9.678;2023-03-21T03:33:19;56.20;;;30.30;;
65373;SDS011;52070;53.760;9.678;2023-03-21T03:35:49;59.95;;;30.63;;
65373;SDS011;52070;53.760;9.678;2023-03-21T03:38:19;57.13;;;30.30;;
65373;SDS011;52070;53.760;9.678;2023-03-21T03:40:48;65.45;;;31.45;;
65373;SDS011;52070;53.760;9.678;2023-03-21T03:43:20;58.30;;;29.42;;
65373;SDS011;52070;53.760;9.678;2023-03-21T03:45:52;54.50;;;29.80;;
65373;SDS011;52070;53.760;9.678;2023-03-21T03:48:24;59.28;;;30.77;;
65373;SDS011;52070;53.760;9.678;2023-03-21T03:50:53;55.70;;;30.27;;
65373;SDS011;52070;53.760;9.678;2023-03-21T03:53:27;56.45;;;30.10;;
65373;SDS011;52070;53.760;9.678;2023-03-21T03:55:59;55.53;;;29.38;;
65373;SDS011;52070;53.760;9.678;2023-03-21T03:58:27;60.13;;;30.38;;
65373;SDS011;52070;53.760;9.678;2023-03-21T04:00:55;60.25;;;30.42;;
65373;SDS011;52070;53.760;9.678;2023-03-21T04:03:23;62.22;;;31.17;;
65373;SDS011;52070;53.760;9.678;2023-03-21T04:05:50;61.92;;;31.17;;
65373;SDS011;52070;53.760;9.678;2023-03-21T04:08:18;62.60;;;32.40;;
65373;SDS011;52070;53.760;9.678;2023-03-21T04:10:49;66.00;;;31.73;;
65373;SDS011;52070;53.760;9.678;2023-03-21T04:13:16;70.32;;;32.60;;
65373;SDS011;52070;53.760;9.678;2023-03-21T04:15:42;63.13;;;30.30;;
65373;SDS011;52070;53.760;9.678;2023-03-21T04:18:10;66.97;;;32.63;;
65373;SDS011;52070;53.760;9.678;2023-03-21T04:20:37;64.75;;;32.17;;
65373;SDS011;52070;53.760;9.678;2023-03-21T04:23:04;66.45;;;32.42;;
65373;SDS011;52070;53.760;9.678;2023-03-21T04:25:32;74.85;;;33.28;;
65373;SDS011;52070;53.760;9.678;2023-03-21T04:28:01;70.88;;;32.42;;
65373;SDS011;52070;53.760;9.678;2023-03-21T04:30:28;72.53;;;33.67;;
65373;SDS011;52070;53.760;9.678;2023-03-21T04:32:58;71.28;;;32.55;;
65373;SDS011;52070;53.760;9.678;2023-03-21T04:35:25;74.47;;;33.90;;
65373;SDS011;52070;53.760;9.678;2023-03-21T04:37:52;78.38;;;34.28;;
65373;SDS011;52070;53.760;9.678;2023-03-21T04:40:20;68.88;;;34.35;;
65373;SDS011;52070;53.760;9.678;2023-03-21T04:42:49;71.00;;;34.15;;
65373;SDS011;52070;53.760;9.678;2023-03-21T04:45:17;81.40;;;34.30;;
65373;SDS011;52070;53.760;9.678;2023-03-21T04:47:44;73.85;;;33.03;;
65373;SDS011;52070;53.760;9.678;2023-03-21T04:50:12;68.90;;;33.40;;
65373;SDS011;52070;53.760;9.678;2023-03-21T04:52:40;69.25;;;33.17;;
65373;SDS011;52070;53.760;9.678;2023-03-21T04:55:07;74.22;;;34.45;;
65373;SDS011;52070;53.760;9.678;2023-03-21T04:57:35;69.20;;;33.10;;
65373;SDS011;52070;53.760;9.678;2023-03-21T05:00:04;69.82;;;33.65;;
65373;SDS011;52070;53.760;9.678;2023-03-21T05:02:37;76.63;;;34.38;;
65373;SDS011;52070;53.760;9.678;2023-03-21T05:05:04;76.45;;;34.35;;
65373;SDS011;52070;53.760;9.678;2023-03-21T05:07:35;73.00;;;34.20;;
65373;SDS011;52070;53.760;9.678;2023-03-21T05:10:03;75.82;;;34.13;;
65373;SDS011;52070;53.760;9.678;2023-03-21T05:12:31;73.45;;;33.78;;
65373;SDS011;52070;53.760;9.678;2023-03-21T05:14:58;79.32;;;34.20;;
65373;SDS011;52070;53.760;9.678;2023-03-21T05:17:25;75.15;;;34.28;;
65373;SDS011;52070;53.760;9.678;2023-03-21T05:19:54;73.78;;;32.58;;
65373;SDS011;52070;53.760;9.678;2023-03-21T05:22:22;71.07;;;32.78;;
65373;SDS011;52070;53.760;9.678;2023-03-21T05:24:51;68.22;;;32.63;;
65373;SDS011;52070;53.760;9.678;2023-03-21T05:27:20;72.13;;;33.25;;
65373;SDS011;52070;53.760;9.678;2023-03-21T05:32:28;59.72;;;29.48;;
65373;SDS011;52070;53.760;9.678;2023-03-21T05:34:57;59.63;;;31.08;;
65373;SDS011;52070;53.760;9.678;2023-03-21T05:37:24;58.67;;;30.00;;
65373;SDS011;52070;53.760;9.678;2023-03-21T05:39:51;62.00;;;31.73;;
65373;SDS011;52070;53.760;9.678;2023-03-21T05:42:17;61.50;;;30.95;;
65373;SDS011;52070;53.760;9.678;2023-03-21T05:44:45;54.80;;;29.70;;
65373;SDS011;52070;53.760;9.678;2023-03-21T05:47:13;64.78;;;30.75;;
65373;SDS011;52070;53.760;9.678;2023-03-21T05:49:41;57.25;;;29.30;;
65373;SDS011;52070;53.760;9.678;2023-03-21T05:52:09;57.33;;;29.40;;
65373;SDS011;52070;53.760;9.678;2023-03-21T05:54:36;56.22;;;28.73;;
65373;SDS011;52070;53.760;9.678;2023-03-21T05:57:04;49.10;;;28.08;;
65373;SDS011;52070;53.760;9.678;2023-03-21T05:59:31;50.53;;;28.35;;
65373;SDS011;52070;53.760;9.678;2023-03-21T06:01:58;47.67;;;26.05;;
65373;SDS011;52070;53.760;9.678;2023-03-21T06:04:25;45.90;;;26.98;;
65373;SDS011;52070;53.760;9.678;2023-03-21T06:06:52;50.47;;;28.42;;
65373;SDS011;52070;53.760;9.678;2023-03-21T06:09:21;54.75;;;29.25;;
65373;SDS011;52070;53.760;9.678;2023-03-21T06:11:49;53.05;;;29.00;;
65373;SDS011;52070;53.760;9.678;2023-03-21T06:14:18;53.20;;;29.80;;
65373;SDS011;52070;53.760;9.678;2023-03-21T06:16:46;52.75;;;29.70;;
65373;SDS011;52070;53.760;9.678;2023-03-21T06:19:13;51.58;;;28.58;;
65373;SDS011;52070;53.760;9.678;2023-03-21T06:21:40;54.53;;;28.98;;
65373;SDS011;52070;53.760;9.678;2023-03-21T06:24:08;51.00;;;28.85;;
65373;SDS011;52070;53.760;9.678;2023-03-21T06:26:36;53.00;;;28.98;;
65373;SDS011;52070;53.760;9.678;2023-03-21T06:29:04;53.28;;;29.88;;
65373;SDS011;52070;53.760;9.678;2023-03-21T06:31:31;48.95;;;28.30;;
65373;SDS011;52070;53.760;9.678;2023-03-21T06:33:58;52.00;;;28.27;;
65373;SDS011;52070;53.760;9.678;2023-03-21T06:36:25;53.55;;;29.52;;
65373;SDS011;52070;53.760;9.678;2023-03-21T06:38:52;58.25;;;31.63;;
65373;SDS011;52070;53.760;9.678;2023-03-21T06:41:19;56.22;;;30.27;;
65373;SDS011;52070;53.760;9.678;2023-03-21T06:43:47;53.88;;;28.80;;
65373;SDS011;52070;53.760;9.678;2023-03-21T06:46:15;53.25;;;29.33;;
65373;SDS011;52070;53.760;9.678;2023-03-21T06:51:12;51.95;;;28.17;;
65373;SDS011;52070;53.760;9.678;2023-03-21T06:53:41;51.00;;;29.75;;
65373;SDS011;52070;53.760;9.678;2023-03-21T06:56:09;53.13;;;30.02;;
65373;SDS011;52070;53.760;9.678;2023-03-21T06:58:37;58.42;;;30.27;;
65373;SDS011;52070;53.760;9.678;2023-03-21T07:01:05;55.15;;;29.85;;
65373;SDS011;52070;53.760;9.678;2023-03-21T07:03:33;58.20;;;29.30;;
65373;SDS011;52070;53.760;9.678;2023-03-21T07:06:02;51.90;;;28.75;;
65373;SDS011;52070;53.760;9.678;2023-03-21T07:08:31;56.78;;;30.52;;
65373;SDS011;52070;53.760;9.678;2023-03-21T07:10:58;60.75;;;30.90;;
65373;SDS011;52070;53.760;9.678;2023-03-21T07:13:25;59.40;;;32.28;;
65373;SDS011;52070;53.760;9.678;2023-03-21T07:15:52;60.90;;;31.08;;
65373;SDS011;52070;53.760;9.678;2023-03-21T07:18:20;63.90;;;31.70;;
65373;SDS011;52070;53.760;9.678;2023-03-21T07:20:48;62.80;;;31.38;;
65373;SDS011;52070;53.760;9.678;2023-03-21T07:23:24;63.88;;;31.55;;
65373;SDS011;52070;53.760;9.678;2023-03-21T07:26:05;62.20;;;31.08;;
65373;SDS011;52070;53.760;9.678;2023-03-21T07:28:50;74.90;;;33.38;;
65373;SDS011;52070;53.760;9.678;2023-03-21T07:31:17;79.20;;;33.83;;
65373;SDS011;52070;53.760;9.678;2023-03-21T07:33:46;87.22;;;35.88;;
65373;SDS011;52070;53.760;9.678;2023-03-21T07:36:13;81.22;;;35.70;;
65373;SDS011;52070;53.760;9.678;2023-03-21T07:38:41;79.45;;;35.45;;
65373;SDS011;52070;53.760;9.678;2023-03-21T07:41:08;98.30;;;37.53;;
65373;SDS011;52070;53.760;9.678;2023-03-21T07:43:35;104.00;;;38.63;;
65373;SDS011;52070;53.760;9.678;2023-03-21T07:46:02;94.00;;;37.50;;
65373;SDS011;52070;53.760;9.678;2023-03-21T07:48:30;109.25;;;37.85;;
65373;SDS011;52070;53.760;9.678;2023-03-21T07:50:59;103.80;;;38.25;;
65373;SDS011;52070;53.760;9.678;2023-03-21T07:53:26;118.40;;;40.88;;
65373;SDS011;52070;53.760;9.678;2023-03-21T07:55:54;106.75;;;38.88;;
65373;SDS011;52070;53.760;9.678;2023-03-21T07:58:21;102.03;;;38.33;;
65373;SDS011;52070;53.760;9.678;2023-03-21T08:00:48;114.28;;;38.83;;
65373;SDS011;52070;53.760;9.678;2023-03-21T08:03:16;135.77;;;39.13;;
65373;SDS011;52070;53.760;9.678;2023-03-21T08:05:43;108.70;;;38.45;;
65373;SDS011;52070;53.760;9.678;2023-03-21T08:08:12;121.65;;;38.72;;
65373;SDS011;52070;53.760;9.678;2023-03-21T08:10:40;111.95;;;38.92;;
65373;SDS011;52070;53.760;9.678;2023-03-21T08:13:07;127.10;;;40.38;;
65373;SDS011;52070;53.760;9.678;2023-03-21T08:15:34;115.68;;;38.03;;
65373;SDS011;52070;53.760;9.678;2023-03-21T08:18:02;139.73;;;40.72;;
65373;SDS011;52070;53.760;9.678;2023-03-21T08:20:29;110.32;;;39.35;;
65373;SDS011;52070;53.760;9.678;2023-03-21T08:22:56;131.18;;;40.50;;
65373;SDS011;52070;53.760;9.678;2023-03-21T08:25:24;122.82;;;41.88;;
65373;SDS011;52070;53.760;9.678;2023-03-21T08:27:51;123.53;;;40.00;;
65373;SDS011;52070;53.760;9.678;2023-03-21T08:30:19;117.47;;;40.35;;
65373;SDS011;52070;53.760;9.678;2023-03-21T08:32:47;130.57;;;38.92;;
65373;SDS011;52070;53.760;9.678;2023-03-21T08:35:14;124.85;;;40.15;;
65373;SDS011;52070;53.760;9.678;2023-03-21T08:37:43;126.57;;;40.35;;
65373;SDS011;52070;53.760;9.678;2023-03-21T08:40:11;142.00;;;41.00;;
65373;SDS011;52070;53.760;9.678;2023-03-21T08:42:41;138.85;;;39.60;;
65373;SDS011;52070;53.760;9.678;2023-03-21T08:45:11;120.28;;;38.92;;
65373;SDS011;52070;53.760;9.678;2023-03-21T08:47:39;123.13;;;39.97;;
65373;SDS011;52070;53.760;9.678;2023-03-21T08:50:06;127.72;;;39.28;;
65373;SDS011;52070;53.760;9.678;2023-03-21T08:52:35;132.50;;;39.80;;
65373;SDS011;52070;53.760;9.678;2023-03-21T08:55:02;121.30;;;39.70;;
65373;SDS011;52070;53.760;9.678;2023-03-21T08:57:30;114.43;;;38.00;;
65373;SDS011;52070;53.760;9.678;2023-03-21T08:59:58;129.20;;;39.03;;
65373;SDS011;52070;53.760;9.678;2023-03-21T09:02:25;127.18;;;40.28;;
65373;SDS011;52070;53.760;9.678;2023-03-21T09:04:52;116.80;;;39.95;;
65373;SDS011;52070;53.760;9.678;2023-03-21T09:07:23;121.85;;;41.20;;
65373;SDS011;52070;53.760;9.678;2023-03-21T09:09:50;110.00;;;38.97;;
65373;SDS011;52070;53.760;9.678;2023-03-21T09:12:18;119.43;;;38.72;;
65373;SDS011;52070;53.760;9.678;2023-03-21T09:14:45;119.55;;;39.72;;
65373;SDS011;52070;53.760;9.678;2023-03-21T09:17:13;128.60;;;39.47;;
65373;SDS011;52070;53.760;9.678;2023-03-21T09:19:40;118.30;;;38.30;;
65373;SDS011;52070;53.760;9.678;2023-03-21T09:22:07;104.78;;;38.05;;
65373;SDS011;52070;53.760;9.678;2023-03-21T09:24:38;114.57;;;37.38;;
65373;SDS011;52070;53.760;9.678;2023-03-21T09:27:06;112.00;;;37.15;;
65373;SDS011;52070;53.760;9.678;2023-03-21T09:29:33;119.85;;;38.92;;
65373;SDS011;52070;53.760;9.678;2023-03-21T09:32:00;119.88;;;37.88;;
65373;SDS011;52070;53.760;9.678;2023-03-21T09:34:30;114.90;;;38.20;;
65373;SDS011;52070;53.760;9.678;2023-03-21T09:36:57;111.18;;;36.92;;
65373;SDS011;52070;53.760;9.678;2023-03-21T09:39:24;101.32;;;34.92;;
65373;SDS011;52070;53.760;9.678;2023-03-21T09:42:09;110.47;;;37.80;;
65373;SDS011;52070;53.760;9.678;2023-03-21T09:44:47;101.85;;;35.25;;
65373;SDS011;52070;53.760;9.678;2023-03-21T09:47:22;95.75;;;33.60;;
65373;SDS011;52070;53.760;9.678;2023-03-21T09:49:55;108.07;;;36.65;;
65373;SDS011;52070;53.760;9.678;2023-03-21T09:52:26;98.72;;;35.38;;
65373;SDS011;52070;53.760;9.678;2023-03-21T09:54:57;108.40;;;36.15;;
65373;SDS011;52070;53.760;9.678;2023-03-21T09:57:27;100.47;;;36.42;;
65373;SDS011;52070;53.760;9.678;2023-03-21T09:59:58;94.07;;;35.95;;
65373;SDS011;52070;53.760;9.678;2023-03-21T10:02:38;91.93;;;34.80;;
65373;SDS011;52070;53.760;9.678;2023-03-21T10:05:16;92.30;;;32.90;;
65373;SDS011;52070;53.760;9.678;2023-03-21T10:07:45;85.38;;;33.22;;
65373;SDS011;52070;53.760;9.678;2023-03-21T10:10:19;81.20;;;31.85;;
65373;SDS011;52070;53.760;9.678;2023-03-21T10:12:49;81.82;;;32.08;;
65373;SDS011;52070;53.760;9.678;2023-03-21T10:15:20;78.80;;;32.08;;
65373;SDS011;52070;53.760;9.678;2023-03-21T10:17:51;75.95;;;30.80;;
65373;SDS011;52070;53.760;9.678;2023-03-21T10:20:24;74.88;;;30.17;;
65373;SDS011;52070;53.760;9.678;2023-03-21T10:22:52;71.95;;;31.23;;
65373;SDS011;52070;53.760;9.678;2023-03-21T10:25:21;62.92;;;28.25;;
65373;SDS011;52070;53.760;9.678;2023-03-21T10:27:51;65.45;;;28.25;;
65373;SDS011;52070;53.760;9.678;2023-03-21T10:30:20;63.35;;;27.60;;
65373;SDS011;52070;53.760;9.678;2023-03-21T10:33:01;53.85;;;26.23;;
65373;SDS011;52070;53.760;9.678;2023-03-21T10:35:35;60.63;;;27.42;;
65373;SDS011;52070;53.760;9.678;2023-03-21T10:38:04;50.58;;;24.40;;
65373;SDS011;52070;53.760;9.678;2023-03-21T10:40:31;48.95;;;24.65;;
65373;SDS011;52070;53.760;9.678;2023-03-21T10:43:14;54.35;;;24.55;;
65373;SDS011;52070;53.760;9.678;2023-03-21T10:45:44;48.97;;;23.17;;
65373;SDS011;52070;53.760;9.678;2023-03-21T10:48:12;45.53;;;24.23;;
65373;SDS011;52070;53.760;9.678;2023-03-21T10:50:40;45.55;;;23.45;;
65373;SDS011;52070;53.760;9.678;2023-03-21T10:53:12;44.00;;;22.75;;
65373;SDS011;52070;53.760;9.678;2023-03-21T10:55:44;41.42;;;21.60;;
65373;SDS011;52070;53.760;9.678;2023-03-21T10:58:14;45.20;;;22.38;;
65373;SDS011;52070;53.760;9.678;2023-03-21T11:00:51;48.17;;;23.25;;
65373;SDS011;52070;53.760;9.678;2023-03-21T11:03:22;43.03;;;23.70;;
65373;SDS011;52070;53.760;9.678;2023-03-21T11:05:56;40.50;;;22.45;;
65373;SDS011;52070;53.760;9.678;2023-03-21T11:08:26;43.05;;;22.67;;
65373;SDS011;52070;53.760;9.678;2023-03-21T11:10:54;45.90;;;23.35;;
65373;SDS011;52070;53.760;9.678;2023-03-21T11:13:27;49.40;;;22.90;;
65373;SDS011;52070;53.760;9.678;2023-03-21T11:16:03;44.05;;;22.60;;
65373;SDS011;52070;53.760;9.678;2023-03-21T11:18:32;49.50;;;23.42;;
65373;SDS011;52070;53.760;9.678;2023-03-21T11:21:07;46.28;;;23.17;;
65373;SDS011;52070;53.760;9.678;2023-03-21T11:23:37;40.97;;;22.35;;
65373;SDS011;52070;53.760;9.678;2023-03-21T11:26:08;41.67;;;21.73;;
65373;SDS011;52070;53.760;9.678;2023-03-21T11:28:37;38.28;;;20.92;;
65373;SDS011;52070;53.760;9.678;2023-03-21T11:31:06;37.17;;;20.73;;
65373;SDS011;52070;53.760;9.678;2023-03-21T11:33:35;41.00;;;21.40;;
65373;SDS011;52070;53.760;9.678;2023-03-21T11:36:05;40.47;;;21.15;;
65373;SDS011;52070;53.760;9.678;2023-03-21T11:38:51;37.13;;;21.33;;
65373;SDS011;52070;53.760;9.678;2023-03-21T11:41:21;35.22;;;19.98;;
65373;SDS011;52070;53.760;9.678;2023-03-21T11:43:50;41.67;;;20.30;;
65373;SDS011;52070;53.760;9.678;2023-03-21T11:46:21;34.42;;;18.88;;
65373;SDS011;52070;53.760;9.678;2023-03-21T11:48:49;33.25;;;18.55;;
65373;SDS011;52070;53.760;9.678;2023-03-21T11:51:20;35.30;;;18.73;;
65373;SDS011;52070;53.760;9.678;2023-03-21T11:53:56;34.88;;;17.77;;
65373;SDS011;52070;53.760;9.678;2023-03-21T11:56:31;30.70;;;16.95;;
65373;SDS011;52070;53.760;9.678;2023-03-21T12:01:54;31.52;;;17.23;;
65373;SDS011;52070;53.760;9.678;2023-03-21T12:04:34;31.25;;;17.98;;
65373;SDS011;52070;53.760;9.678;2023-03-21T12:07:11;31.80;;;17.65;;
65373;SDS011;52070;53.760;9.678;2023-03-21T12:09:52;24.02;;;15.73;;
65373;SDS011;52070;53.760;9.678;2023-03-21T12:12:31;30.60;;;16.92;;
65373;SDS011;52070;53.760;9.678;2023-03-21T12:15:05;31.17;;;16.85;;
65373;SDS011;52070;53.760;9.678;2023-03-21T12:17:40;24.77;;;16.67;;
65373;SDS011;52070;53.760;9.678;2023-03-21T12:26:16;31.35;;;16.75;;
65373;SDS011;52070;53.760;9.678;2023-03-21T12:28:51;29.15;;;15.88;;
65373;SDS011;52070;53.760;9.678;2023-03-21T12:31:42;27.45;;;15.45;;
65373;SDS011;52070;53.760;9.678;2023-03-21T12:34:20;26.40;;;16.05;;
65373;SDS011;52070;53.760;9.678;2023-03-21T12:37:03;25.83;;;14.47;;
65373;SDS011;52070;53.760;9.678;2023-03-21T12:42:09;20.42;;;12.40;;
65373;SDS011;52070;53.760;9.678;2023-03-21T12:44:55;20.02;;;12.88;;
65373;SDS011;52070;53.760;9.678;2023-03-21T12:47:26;17.88;;;12.02;;
65373;SDS011;52070;53.760;9.678;2023-03-21T12:49:57;23.35;;;13.50;;
65373;SDS011;52070;53.760;9.678;2023-03-21T12:52:29;23.25;;;13.65;;
65373;SDS011;52070;53.760;9.678;2023-03-21T12:55:02;23.42;;;13.63;;
65373;SDS011;52070;53.760;9.678;2023-03-21T12:57:36;23.17;;;14.23;;
65373;SDS011;52070;53.760;9.678;2023-03-21T13:00:12;22.27;;;13.68;;
65373;SDS011;52070;53.760;9.678;2023-03-21T13:02:43;22.17;;;13.90;;
65373;SDS011;52070;53.760;9.678;2023-03-21T13:05:16;21.92;;;14.23;;
65373;SDS011;52070;53.760;9.678;2023-03-21T13:07:46;24.70;;;13.48;;
65373;SDS011;52070;53.760;9.678;2023-03-21T13:10:19;21.42;;;12.80;;
65373;SDS011;52070;53.760;9.678;2023-03-21T13:12:50;18.45;;;12.85;;
65373;SDS011;52070;53.760;9.678;2023-03-21T13:15:27;22.55;;;13.27;;
65373;SDS011;52070;53.760;9.678;2023-03-21T13:18:03;17.88;;;11.32;;
65373;SDS011;52070;53.760;9.678;2023-03-21T13:20:41;19.58;;;11.35;;
65373;SDS011;52070;53.760;9.678;2023-03-21T13:23:11;15.40;;;10.40;;
65373;SDS011;52070;53.760;9.678;2023-03-21T13:25:42;15.95;;;10.55;;
65373;SDS011;52070;53.760;9.678;2023-03-21T13:28:15;17.05;;;10.88;;
65373;SDS011;52070;53.760;9.678;2023-03-21T13:30:45;18.17;;;11.48;;
65373;SDS011;52070;53.760;9.678;2023-03-21T13:33:14;16.15;;;10.50;;
65373;SDS011;52070;53.760;9.678;2023-03-21T13:35:43;20.52;;;10.98;;
65373;SDS011;52070;53.760;9.678;2023-03-21T13:38:13;16.77;;;10.73;;
65373;SDS011;52070;53.760;9.678;2023-03-21T13:40:47;16.70;;;10.45;;
65373;SDS011;52070;53.760;9.678;2023-03-21T13:43:31;15.68;;;11.05;;
65373;SDS011;52070;53.760;9.678;2023-03-21T13:46:04;18.60;;;10.50;;
65373;SDS011;52070;53.760;9.678;2023-03-21T13:48:40;17.40;;;10.00;;
65373;SDS011;52070;53.760;9.678;2023-03-21T13:54:25;14.57;;;10.07;;
65373;SDS011;52070;53.760;9.678;2023-03-21T13:56:57;19.70;;;11.68;;
65373;SDS011;52070;53.760;9.678;2023-03-21T14:02:19;18.27;;;10.50;;
65373;SDS011;52070;53.760;9.678;2023-03-21T14:04:52;19.23;;;11.02;;
65373;SDS011;52070;53.760;9.678;2023-03-21T14:07:22;19.85;;;12.40;;
65373;SDS011;52070;53.760;9.678;2023-03-21T14:09:52;18.75;;;12.00;;
65373;SDS011;52070;53.760;9.678;2023-03-21T14:12:25;20.27;;;12.18;;
65373;SDS011;52070;53.760;9.678;2023-03-21T14:14:57;23.83;;;13.82;;
65373;SDS011;52070;53.760;9.678;2023-03-21T14:17:26;20.83;;;13.20;;
65373;SDS011;52070;53.760;9.678;2023-03-21T14:19:55;19.95;;;13.55;;
65373;SDS011;52070;53.760;9.678;2023-03-21T14:22:25;19.70;;;13.68;;
65373;SDS011;52070;53.760;9.678;2023-03-21T14:24:55;23.02;;;13.82;;
65373;SDS011;52070;53.760;9.678;2023-03-21T14:27:25;25.25;;;13.80;;
65373;SDS011;52070;53.760;9.678;2023-03-21T14:29:56;22.90;;;14.20;;
65373;SDS011;52070;53.760;9.678;2023-03-21T14:32:24;25.15;;;13.95;;
65373;SDS011;52070;53.760;9.678;2023-03-21T14:34:53;20.45;;;13.55;;
65373;SDS011;52070;53.760;9.678;2023-03-21T14:37:25;22.13;;;13.85;;
65373;SDS011;52070;53.760;9.678;2023-03-21T14:39:57;19.65;;;13.73;;
65373;SDS011;52070;53.760;9.678;2023-03-21T14:42:26;25.17;;;14.00;;
65373;SDS011;52070;53.760;9.678;2023-03-21T14:44:54;22.75;;;14.23;;
65373;SDS011;52070;53.760;9.678;2023-03-21T14:47:25;24.33;;;13.77;;
65373;SDS011;52070;53.760;9.678;2023-03-21T14:49:54;23.92;;;14.65;;
65373;SDS011;52070;53.760;9.678;2023-03-21T14:52:22;27.55;;;15.85;;
65373;SDS011;52070;53.760;9.678;2023-03-21T14:54:51;24.45;;;15.52;;
65373;SDS011;52070;53.760;9.678;2023-03-21T14:57:20;26.95;;;16.15;;
65373;SDS011;52070;53.760;9.678;2023-03-21T14:59:51;29.35;;;16.33;;
65373;SDS011;52070;53.760;9.678;2023-03-21T15:02:21;29.02;;;16.70;;
65373;SDS011;52070;53.760;9.678;2023-03-21T15:04:52;23.02;;;14.25;;
65373;SDS011;52070;53.760;9.678;2023-03-21T15:07:25;25.17;;;14.95;;